Time;durP1;ratioP1;P1;durP2;ratioP2;P2;SDS_P1;SDS_P2;PMS_P1;PMS_P2;Temp;Humidity;BMP_temperature;BMP_pressure;BME280_temperature;BME280_humidity;BME280_pressure;Samples;Min_cycle;Max_cycle;Signal;HPM_P1;HPM_P2
2023/06/22 00:01:02;;;;;;;10.07;6.00;;;;;;;19.12;100.00;95549.06;5066518;28;20039;-75
2023/06/22 00:03:28;;;;;;;12.10;5.88;;;;;;;19.16;100.00;95522.81;5073016;28;20128;-75
2023/06/22 00:05:53;;;;;;;11.95;6.07;;;;;;;19.12;100.00;95514.41;5067334;28;20016;-75
2023/06/22 00:08:19;;;;;;;19.05;6.15;;;;;;;19.13;100.00;95512.53;5061794;28;20021;-75
2023/06/22 00:10:46;;;;;;;12.80;6.00;;;;;;;19.11;100.00;95487.91;5066838;28;20017;-75
2023/06/22 00:13:12;;;;;;;13.95;6.30;;;;;;;19.08;100.00;95496.31;5046569;28;20025;-75
2023/06/22 00:15:39;;;;;;;20.73;6.22;;;;;;;18.96;100.00;95493.38;5063375;28;20427;-75
2023/06/22 00:18:05;;;;;;;17.73;6.55;;;;;;;18.96;100.00;95469.34;5072734;28;20043;-75
2023/06/22 00:20:32;;;;;;;14.80;6.93;;;;;;;18.97;100.00;95476.34;5078942;28;20194;-75
2023/06/22 00:22:59;;;;;;;15.82;6.10;;;;;;;18.97;100.00;95460.34;5071595;28;20029;-75
2023/06/22 00:25:25;;;;;;;15.32;6.53;;;;;;;18.94;100.00;95455.41;5082396;28;20043;-76
2023/06/22 00:27:51;;;;;;;13.27;6.28;;;;;;;18.92;100.00;95454.78;5067452;28;20400;-75
2023/06/22 00:30:17;;;;;;;13.75;6.50;;;;;;;18.90;100.00;95444.31;5065007;28;20378;-75
2023/06/22 00:32:44;;;;;;;13.20;6.05;;;;;;;18.91;100.00;95440.59;5085033;28;20028;-75
2023/06/22 00:35:10;;;;;;;11.68;6.18;;;;;;;18.87;100.00;95426.84;5067524;28;20074;-75
2023/06/22 00:37:36;;;;;;;11.98;5.60;;;;;;;18.82;100.00;95423.97;5065179;28;20066;-75
2023/06/22 00:40:03;;;;;;;12.57;5.93;;;;;;;18.76;100.00;95414.09;5067520;28;20028;-75
2023/06/22 00:42:29;;;;;;;15.27;5.97;;;;;;;18.82;100.00;95410.63;5071949;28;20026;-75
2023/06/22 00:44:54;;;;;;;11.90;6.32;;;;;;;18.76;100.00;95414.09;5045710;28;20046;-75
2023/06/22 00:47:21;;;;;;;11.45;6.38;;;;;;;18.69;100.00;95402.59;5049324;28;20395;-75
2023/06/22 00:49:50;;;;;;;13.48;6.20;;;;;;;18.68;100.00;95398.28;5073773;28;20029;-76
2023/06/22 00:52:20;;;;;;;14.25;5.97;;;;;;;18.61;100.00;95399.06;5071811;28;20071;-75
2023/06/22 00:54:51;;;;;;;16.08;6.80;;;;;;;18.57;100.00;95383.69;5056120;28;20066;-75
2023/06/22 00:57:17;;;;;;;11.43;6.43;;;;;;;18.50;100.00;95385.50;5067710;28;20489;-75
2023/06/22 00:59:44;;;;;;;17.80;6.95;;;;;;;18.37;100.00;95372.94;5067656;28;20071;-75
2023/06/22 01:02:09;;;;;;;15.63;6.85;;;;;;;18.44;100.00;95349.81;5066434;28;20029;-78
2023/06/22 01:04:36;;;;;;;12.68;6.22;;;;;;;18.41;100.00;95335.03;5073205;28;20507;-76
2023/06/22 01:07:33;;;;;;;16.38;6.25;;;;;;;18.45;100.00;95330.97;5075886;28;20025;-75
2023/06/22 01:10:26;;;;;;;11.82;6.03;;;;;;;18.43;100.00;95326.84;5070631;28;20095;-75
2023/06/22 01:12:56;;;;;;;17.45;6.18;;;;;;;18.41;100.00;95328.88;5069922;28;20500;-77
2023/06/22 01:15:37;;;;;;;17.13;7.10;;;;;;;18.37;100.00;95327.66;5071422;28;20025;-75
2023/06/22 01:18:05;;;;;;;17.52;6.32;;;;;;;18.31;100.00;95327.44;5073851;28;20112;-75
2023/06/22 01:20:33;;;;;;;13.73;6.35;;;;;;;18.24;100.00;95323.94;5065357;28;20052;-78
2023/06/22 01:23:05;;;;;;;14.75;6.85;;;;;;;18.08;100.00;95314.41;5073937;28;20033;-78
2023/06/22 01:25:58;;;;;;;11.50;6.70;;;;;;;18.02;100.00;95308.06;5073616;28;20059;-78
2023/06/22 01:28:35;;;;;;;13.35;6.53;;;;;;;18.01;100.00;95293.06;5044283;28;20043;-75
2023/06/22 01:31:05;;;;;;;16.25;7.05;;;;;;;17.99;100.00;95273.78;5065779;28;20034;-77
2023/06/22 01:33:34;;;;;;;12.20;6.75;;;;;;;17.97;100.00;95259.03;5057122;28;20024;-77
2023/06/22 01:36:01;;;;;;;12.43;6.38;;;;;;;18.05;100.00;95250.88;5076823;28;20024;-78
2023/06/22 01:38:29;;;;;;;12.07;7.07;;;;;;;18.08;100.00;95249.69;5071376;28;20109;-78
2023/06/22 01:40:56;;;;;;;13.65;6.50;;;;;;;18.09;100.00;95238.00;5076640;28;20341;-75
2023/06/22 01:43:23;;;;;;;14.98;7.10;;;;;;;18.07;100.00;95218.75;5071608;28;20473;-78
2023/06/22 01:45:50;;;;;;;15.27;6.80;;;;;;;18.00;100.00;95194.72;5064284;28;20193;-77
2023/06/22 01:48:17;;;;;;;12.13;6.68;;;;;;;18.04;100.00;95180.84;5077104;28;20032;-78
2023/06/22 01:50:43;;;;;;;12.70;7.25;;;;;;;17.96;100.00;95167.66;5073163;28;20028;-77
2023/06/22 01:53:08;;;;;;;17.00;7.13;;;;;;;17.92;100.00;95155.78;5080278;28;20511;-77
2023/06/22 01:55:34;;;;;;;11.63;7.18;;;;;;;17.95;100.00;95171.34;5075566;28;20481;-77
2023/06/22 01:57:59;;;;;;;20.20;6.97;;;;;;;17.99;100.00;95169.09;5054978;28;20107;-77
2023/06/22 02:00:28;;;;;;;15.70;6.85;;;;;;;18.24;100.00;95172.06;5069072;28;20074;-78
2023/06/22 02:02:58;;;;;;;13.57;6.20;;;;;;;18.25;100.00;95175.53;5083437;28;20473;-78
2023/06/22 02:05:25;;;;;;;13.13;7.20;;;;;;;18.23;100.00;95172.25;5073497;28;20495;-77
2023/06/22 02:08:00;;;;;;;16.75;6.72;;;;;;;18.22;100.00;95151.97;5072794;28;20024;-77
2023/06/22 02:10:28;;;;;;;15.90;6.83;;;;;;;18.14;100.00;95152.97;5052233;28;20039;-78
2023/06/22 02:12:56;;;;;;;19.23;7.28;;;;;;;18.14;100.00;95160.97;5072575;28;20259;-78
2023/06/22 02:15:22;;;;;;;16.60;7.88;;;;;;;18.17;100.00;95160.56;5065684;28;20111;-77
2023/06/22 02:17:48;;;;;;;15.50;7.03;;;;;;;18.23;100.00;95172.25;5069603;28;20056;-78
2023/06/22 02:20:14;;;;;;;20.30;7.72;;;;;;;18.34;100.00;95187.63;5067835;28;20060;-78
2023/06/22 02:22:40;;;;;;;13.68;7.05;;;;;;;18.43;100.00;95182.94;5074510;28;20028;-77
2023/06/22 02:25:06;;;;;;;18.33;7.25;;;;;;;18.52;100.00;95181.72;5073977;28;20044;-77
2023/06/22 02:27:31;;;;;;;13.88;7.35;;;;;;;18.47;100.00;95189.50;5080145;28;20025;-77
2023/06/22 02:29:57;;;;;;;16.10;7.45;;;;;;;18.50;100.00;95182.94;5065198;28;20103;-77
2023/06/22 02:32:22;;;;;;;15.13;7.93;;;;;;;18.53;100.00;95179.88;5057319;28;20050;-78
2023/06/22 02:34:48;;;;;;;15.07;7.22;;;;;;;18.54;100.00;95184.16;5067031;28;20063;-78
2023/06/22 02:37:15;;;;;;;15.50;7.32;;;;;;;18.47;100.00;95184.19;5070655;28;20107;-77
2023/06/22 02:39:40;;;;;;;15.38;7.65;;;;;;;18.39;100.00;95179.03;5066350;28;20032;-78
2023/06/22 02:42:06;;;;;;;16.45;7.18;;;;;;;18.36;100.00;95176.78;5075365;28;20017;-78
2023/06/22 02:44:31;;;;;;;17.33;7.05;;;;;;;18.33;100.00;95168.19;5066774;28;20044;-78
2023/06/22 02:46:57;;;;;;;16.42;7.40;;;;;;;18.28;100.00;95175.97;5054916;28;20070;-77
2023/06/22 02:49:23;;;;;;;18.08;7.53;;;;;;;18.12;100.00;95168.34;5073994;28;20036;-78
2023/06/22 02:51:49;;;;;;;13.88;6.90;;;;;;;18.07;100.00;95165.47;5055501;28;20142;-78
2023/06/22 02:54:16;;;;;;;17.67;7.97;;;;;;;18.02;100.00;95161.56;5071342;28;20070;-77
2023/06/22 02:56:43;;;;;;;10.55;6.93;;;;;;;18.00;100.00;95147.59;5073546;28;20029;-78
2023/06/22 02:59:10;;;;;;;14.38;7.43;;;;;;;18.04;100.00;95130.25;5070992;28;20047;-78
2023/06/22 03:01:39;;;;;;;16.30;7.35;;;;;;;18.02;100.00;95118.13;5070261;28;20034;-78
2023/06/22 03:04:06;;;;;;;18.92;7.55;;;;;;;17.97;100.00;95121.38;5065401;28;20038;-78
2023/06/22 03:06:31;;;;;;;15.73;6.63;;;;;;;17.99;100.00;95121.97;5073636;28;20073;-78
2023/06/22 03:09:00;;;;;;;17.05;7.65;;;;;;;17.98;100.00;95111.53;5068429;28;20024;-78
2023/06/22 03:11:25;;;;;;;14.45;7.20;;;;;;;17.99;100.00;95095.34;5062624;28;20029;-77
2023/06/22 03:13:52;;;;;;;13.82;7.50;;;;;;;18.04;100.00;95102.78;5074273;28;20020;-77
2023/06/22 03:16:18;;;;;;;14.43;7.18;;;;;;;18.01;100.00;95105.81;5074866;28;20097;-77
2023/06/22 03:18:44;;;;;;;19.77;7.07;;;;;;;17.94;100.00;95095.16;5068223;28;20041;-77
2023/06/22 03:21:09;;;;;;;18.30;7.13;;;;;;;17.96;100.00;95095.75;5072031;28;20524;-77
2023/06/22 03:23:35;;;;;;;11.45;7.30;;;;;;;18.00;100.00;95089.00;5062968;28;20676;-78
2023/06/22 03:26:01;;;;;;;13.77;7.50;;;;;;;18.00;100.00;95091.66;5071287;28;20380;-78
2023/06/22 03:28:26;;;;;;;19.10;7.95;;;;;;;17.98;100.00;95077.72;5073801;28;20046;-78
2023/06/22 03:30:52;;;;;;;18.42;8.13;;;;;;;17.90;100.00;95056.63;5072326;28;20028;-78
2023/06/22 03:33:17;;;;;;;17.00;7.45;;;;;;;17.93;100.00;95039.44;5064550;28;20230;-77
2023/06/22 03:35:43;;;;;;;17.85;7.32;;;;;;;17.98;100.00;95048.44;5062266;28;20028;-78
2023/06/22 03:38:08;;;;;;;15.68;7.95;;;;;;;17.96;100.00;95044.38;5073381;28;20032;-78
2023/06/22 03:40:33;;;;;;;13.32;7.38;;;;;;;18.02;100.00;95044.41;5072670;28;20028;-78
2023/06/22 03:42:59;;;;;;;19.20;8.75;;;;;;;18.04;100.00;95038.84;5085049;28;20127;-77
2023/06/22 03:45:24;;;;;;;14.82;7.65;;;;;;;18.04;100.00;95018.38;5042110;28;20078;-77
2023/06/22 03:47:50;;;;;;;19.95;7.80;;;;;;;18.08;100.00;95036.59;5062926;28;20020;-77
2023/06/22 03:50:15;;;;;;;23.40;9.00;;;;;;;18.10;100.00;95026.56;5068969;28;20025;-77
2023/06/22 03:52:40;;;;;;;18.20;7.93;;;;;;;18.16;100.00;95044.38;5050418;28;20017;-77
2023/06/22 03:55:07;;;;;;;14.32;7.55;;;;;;;18.32;100.00;95070.63;5084016;28;20353;-77
2023/06/22 03:57:32;;;;;;;17.30;7.18;;;;;;;18.28;100.00;95097.88;5080439;28;20365;-77
2023/06/22 03:59:58;;;;;;;17.90;7.47;;;;;;;18.24;100.00;95089.47;5060060;28;20020;-77
2023/06/22 04:02:24;;;;;;;17.70;8.65;;;;;;;18.21;100.00;95107.72;5076744;28;20376;-77
2023/06/22 04:04:50;;;;;;;14.45;7.25;;;;;;;18.30;100.00;95144.59;5082273;28;20020;-78
2023/06/22 04:07:15;;;;;;;12.63;7.57;;;;;;;18.55;100.00;95159.16;5075363;28;20094;-78
2023/06/22 04:09:41;;;;;;;15.07;7.05;;;;;;;18.45;100.00;95192.38;5078702;28;20082;-77
2023/06/22 04:12:07;;;;;;;15.18;6.78;;;;;;;18.40;100.00;95189.50;5088975;28;20036;-77
2023/06/22 04:14:32;;;;;;;16.58;7.38;;;;;;;18.81;100.00;95245.53;5090539;28;20559;-77
2023/06/22 04:16:58;;;;;;;17.20;7.50;;;;;;;19.27;100.00;95289.22;5077695;28;20035;-77
2023/06/22 04:19:24;;;;;;;15.07;6.88;;;;;;;19.51;100.00;95326.97;5077988;28;20056;-77
2023/06/22 04:21:49;;;;;;;15.38;6.43;;;;;;;19.56;100.00;95367.22;5077822;28;20048;-77
2023/06/22 04:24:15;;;;;;;15.18;7.00;;;;;;;19.52;100.00;95374.84;5058696;28;20020;-78
2023/06/22 04:26:41;;;;;;;17.13;7.93;;;;;;;19.50;100.00;95370.72;5066613;28;20503;-78
2023/06/22 04:29:08;;;;;;;21.13;8.63;;;;;;;19.43;100.00;95366.22;5062448;28;20028;-78
2023/06/22 04:31:36;;;;;;;19.90;7.68;;;;;;;19.43;100.00;95376.91;5071743;28;20024;-77
2023/06/22 04:34:06;;;;;;;13.70;7.25;;;;;;;19.58;100.00;95407.91;5066702;28;20031;-78
2023/06/22 04:36:40;;;;;;;20.27;8.07;;;;;;;19.77;100.00;95416.94;5077020;28;20024;-76
2023/06/22 04:39:06;;;;;;;20.48;7.63;;;;;;;19.85;100.00;95434.59;5065447;28;20107;-77
2023/06/22 04:41:41;;;;;;;18.55;8.25;;;;;;;19.66;100.00;95434.41;5080006;28;20079;-77
2023/06/22 04:44:07;;;;;;;19.33;8.70;;;;;;;19.45;100.00;95422.88;5058946;28;20056;-76
2023/06/22 04:46:37;;;;;;;17.75;8.60;;;;;;;19.30;100.00;95390.22;5053245;28;20495;-77
2023/06/22 04:49:09;;;;;;;25.02;9.45;;;;;;;19.23;100.00;95373.41;5078758;28;20103;-77
2023/06/22 04:51:42;;;;;;;20.83;10.10;;;;;;;19.20;100.00;95353.25;5073433;28;20024;-77
2023/06/22 04:54:09;;;;;;;19.25;9.38;;;;;;;19.18;100.00;95340.16;5071832;28;20107;-77
2023/06/22 04:56:34;;;;;;;19.58;9.40;;;;;;;19.17;100.00;95317.16;5075183;28;20060;-77
2023/06/22 04:59:00;;;;;;;15.98;9.63;;;;;;;19.22;100.00;95307.72;5079073;28;20035;-77
2023/06/22 05:01:26;;;;;;;14.88;8.85;;;;;;;19.20;100.00;95262.53;5075717;28;20453;-77
2023/06/22 05:03:55;;;;;;;18.98;8.80;;;;;;;19.17;100.00;95242.47;5076314;28;20092;-77
2023/06/22 05:06:21;;;;;;;18.20;7.65;;;;;;;19.09;100.00;95207.97;5072618;28;20571;-77
2023/06/22 05:08:47;;;;;;;18.35;8.02;;;;;;;18.99;100.00;95175.56;5080342;28;20036;-77
2023/06/22 05:11:12;;;;;;;18.15;7.88;;;;;;;18.99;100.00;95152.38;5076479;28;20055;-77
2023/06/22 05:13:38;;;;;;;16.95;7.78;;;;;;;18.99;100.00;95128.38;5076597;28;20465;-77
2023/06/22 05:16:03;;;;;;;21.92;9.05;;;;;;;18.96;100.00;95085.28;5076202;28;20115;-76
2023/06/22 05:18:30;;;;;;;19.20;8.95;;;;;;;18.93;100.00;95065.16;5050251;28;20028;-77
2023/06/22 05:20:56;;;;;;;16.38;8.18;;;;;;;18.93;100.00;95030.50;5068877;28;20025;-77
2023/06/22 05:23:21;;;;;;;13.45;7.13;;;;;;;18.90;100.00;94967.75;5072656;28;20028;-77
2023/06/22 05:25:46;;;;;;;15.63;7.78;;;;;;;18.97;100.00;94927.69;5077432;28;20017;-77
2023/06/22 05:28:12;;;;;;;13.25;7.53;;;;;;;19.05;100.00;94859.97;5075631;28;20029;-77
2023/06/22 05:30:38;;;;;;;19.83;7.85;;;;;;;18.99;100.00;94832.31;5068573;28;20067;-77
2023/06/22 05:33:03;;;;;;;16.23;8.07;;;;;;;19.02;100.00;94812.41;5069928;28;20054;-77
2023/06/22 05:35:29;;;;;;;19.50;7.38;;;;;;;18.97;100.00;94841.56;5069687;28;20826;-77
2023/06/22 05:37:55;;;;;;;16.65;7.38;;;;;;;18.95;100.00;94838.28;5074067;28;20111;-77
2023/06/22 05:40:21;;;;;;;18.00;8.15;;;;;;;18.93;100.00;94845.69;5071848;28;20032;-77
2023/06/22 05:42:46;;;;;;;19.48;8.68;;;;;;;18.92;100.00;94814.72;5055743;28;20028;-77
2023/06/22 05:45:12;;;;;;;19.08;7.57;;;;;;;18.91;100.00;94763.22;5073870;28;20098;-77
2023/06/22 05:47:37;;;;;;;21.42;9.48;;;;;;;18.94;100.00;94757.44;5071019;28;20277;-78
2023/06/22 05:50:06;;;;;;;14.57;8.05;;;;;;;18.96;100.00;94726.03;5049565;28;20029;-77
2023/06/22 05:52:32;;;;;;;17.10;7.63;;;;;;;19.00;100.00;94681.13;5070704;28;20504;-76
2023/06/22 05:54:58;;;;;;;17.40;7.78;;;;;;;19.01;100.00;94656.09;5079134;28;20031;-75
2023/06/22 05:57:23;;;;;;;19.52;8.43;;;;;;;19.03;100.00;94638.00;5069788;28;20033;-77
2023/06/22 05:59:49;;;;;;;17.75;8.98;;;;;;;19.10;100.00;94611.28;5072472;28;20431;-74
2023/06/22 06:02:14;;;;;;;16.13;7.65;;;;;;;19.18;100.00;94673.16;5069992;28;20028;-77
2023/06/22 06:04:39;;;;;;;27.02;7.43;;;;;;;19.24;100.00;94718.66;5065009;28;20028;-78
2023/06/22 06:07:05;;;;;;;19.17;8.07;;;;;;;19.26;100.00;94740.59;5064461;28;20113;-77
2023/06/22 06:09:30;;;;;;;21.33;6.88;;;;;;;19.18;100.00;94766.53;5069525;28;20392;-78
2023/06/22 06:11:56;;;;;;;14.98;6.60;;;;;;;19.20;100.00;94762.81;5072794;28;20126;-80
2023/06/22 06:14:21;;;;;;;14.80;7.00;;;;;;;19.15;100.00;94801.66;5076654;28;20032;-71
2023/06/22 06:16:48;;;;;;;14.70;6.95;;;;;;;19.13;100.00;94766.38;5075031;28;20025;-74
2023/06/22 06:19:14;;;;;;;21.15;7.13;;;;;;;19.14;100.00;94792.00;5071356;28;20062;-76
2023/06/22 06:21:39;;;;;;;20.92;8.10;;;;;;;19.23;100.00;94759.72;5063932;28;20425;-74
2023/06/22 06:24:05;;;;;;;18.25;6.68;;;;;;;19.39;100.00;94817.88;5073365;28;20024;-76
2023/06/22 06:26:32;;;;;;;15.82;7.07;;;;;;;19.52;100.00;94846.28;5075583;28;20107;-77
2023/06/22 06:29:00;;;;;;;18.95;6.72;;;;;;;19.55;100.00;94872.53;5062287;28;20408;-76
2023/06/22 06:31:29;;;;;;;15.50;6.40;;;;;;;19.62;100.00;94891.19;5074171;28;20039;-77
2023/06/22 06:33:54;;;;;;;16.17;7.05;;;;;;;19.73;100.00;94965.22;5069903;28;20044;-76
2023/06/22 06:36:20;;;;;;;20.92;7.00;;;;;;;19.78;100.00;94969.91;5072302;28;20058;-76
2023/06/22 06:38:47;;;;;;;17.38;6.55;;;;;;;19.89;100.00;94981.75;5077365;28;20092;-76
2023/06/22 06:41:16;;;;;;;17.77;7.22;;;;;;;19.87;100.00;94984.63;5052784;28;20047;-77
2023/06/22 06:43:44;;;;;;;22.00;7.03;;;;;;;19.89;100.00;95001.28;5074051;28;20408;-77
2023/06/22 06:46:10;;;;;;;20.70;6.80;;;;;;;20.01;100.00;94998.75;5072960;28;20027;-77
2023/06/22 06:48:35;;;;;;;18.48;6.85;;;;;;;19.94;100.00;94997.97;5074490;28;20028;-78
2023/06/22 06:51:01;;;;;;;17.38;7.05;;;;;;;19.97;100.00;94973.47;5072602;28;20024;-77
2023/06/22 06:53:26;;;;;;;16.48;6.68;;;;;;;19.98;100.00;94972.44;5072710;28;20028;-78
2023/06/22 06:55:52;;;;;;;15.73;6.78;;;;;;;20.02;100.00;94980.84;5075105;28;20151;-77
2023/06/22 06:58:17;;;;;;;19.60;7.90;;;;;;;20.03;100.00;94956.59;5073788;28;20032;-77
2023/06/22 07:00:43;;;;;;;14.38;7.03;;;;;;;19.96;100.00;94965.69;5070706;28;20481;-77
2023/06/22 07:03:09;;;;;;;13.60;7.20;;;;;;;19.82;100.00;94964.97;5071647;28;20028;-77
2023/06/22 07:05:35;;;;;;;17.60;6.70;;;;;;;19.80;100.00;94975.06;5072657;28;20054;-77
2023/06/22 07:08:00;;;;;;;18.88;8.50;;;;;;;19.67;100.00;94967.94;5071733;28;20020;-84
2023/06/22 07:10:26;;;;;;;17.17;7.18;;;;;;;19.59;100.00;94950.34;5070829;28;20025;-87
2023/06/22 07:12:52;;;;;;;17.13;7.47;;;;;;;19.58;100.00;94946.84;5075708;28;20028;-83
2023/06/22 07:15:17;;;;;;;11.93;6.55;;;;;;;19.68;100.00;94917.00;5071417;28;20032;-84
2023/06/22 07:17:42;;;;;;;18.33;7.60;;;;;;;19.68;100.00;94921.53;5054872;28;20480;-82
2023/06/22 07:20:12;;;;;;;15.70;7.18;;;;;;;19.64;100.00;94915.81;5078341;28;20056;-84
2023/06/22 07:22:39;;;;;;;16.13;7.75;;;;;;;19.56;100.00;94868.84;5071057;28;20071;-81
2023/06/22 07:25:08;;;;;;;23.05;7.20;;;;;;;19.65;100.00;94848.03;5071116;28;20024;-85
2023/06/22 07:27:37;;;;;;;14.25;6.75;;;;;;;19.64;100.00;94889.09;5070622;28;20024;-80
2023/06/22 07:30:04;;;;;;;15.48;4.72;;;;;;;20.11;100.00;94973.38;5054030;28;20037;-78
2023/06/22 07:32:29;;;;;;;16.83;5.20;;;;;;;20.68;100.00;95264.69;5071765;28;20040;-81
2023/06/22 07:34:55;;;;;;;15.07;4.15;;;;;;;21.67;100.00;95456.16;5072980;28;20036;-83
2023/06/22 07:37:21;;;;;;;9.07;3.72;;;;;;;22.27;100.00;95615.69;5070126;28;20599;-77
2023/06/22 07:39:46;;;;;;;17.40;5.22;;;;;;;22.43;100.00;95661.75;5073284;28;20370;-79
2023/06/22 07:42:12;;;;;;;15.70;3.25;;;;;;;22.57;100.00;95676.75;5073960;28;20031;-76
2023/06/22 07:44:37;;;;;;;18.85;3.13;;;;;;;22.85;100.00;95688.91;5069405;28;20108;-79
2023/06/22 07:47:03;;;;;;;10.07;3.03;;;;;;;22.91;100.00;95711.38;5073691;28;20043;-79
2023/06/22 07:49:29;;;;;;;10.65;3.38;;;;;;;22.95;100.00;95717.13;5054714;28;20033;-78
2023/06/22 07:51:54;;;;;;;11.57;3.67;;;;;;;22.67;100.00;95680.84;5068106;28;20032;-80
2023/06/22 07:54:20;;;;;;;9.98;4.05;;;;;;;22.55;100.00;95692.25;5069138;28;20231;-78
2023/06/22 07:56:46;;;;;;;15.82;3.83;;;;;;;22.53;100.00;95686.28;5074035;28;20185;-82
2023/06/22 07:59:11;;;;;;;15.05;4.47;;;;;;;22.40;100.00;95683.66;5068985;28;20032;-79
2023/06/22 08:01:37;;;;;;;15.13;4.75;;;;;;;22.02;100.00;95634.41;5072614;28;20021;-78
2023/06/22 08:04:02;;;;;;;16.70;4.88;;;;;;;21.80;100.00;95613.31;5068446;28;20063;-79
2023/06/22 08:06:30;;;;;;;11.05;3.50;;;;;;;21.80;100.00;95566.94;5073971;28;20039;-79
2023/06/22 08:08:56;;;;;;;10.32;3.78;;;;;;;21.92;100.00;95569.75;5071073;28;20489;-77
2023/06/22 08:11:23;;;;;;;7.20;3.30;;;;;;;22.12;100.00;95559.72;5068983;28;20274;-79
2023/06/22 08:13:49;;;;;;;8.18;2.63;;;;;;;22.32;100.00;95559.53;5073017;28;20032;-77
2023/06/22 08:16:14;;;;;;;7.38;3.00;;;;;;;22.36;100.00;95505.47;5068966;28;20531;-78
2023/06/22 08:18:40;;;;;;;6.97;2.70;;;;;;;22.26;100.00;95463.91;5071119;28;20048;-78
2023/06/22 08:21:05;;;;;;;9.73;3.63;;;;;;;22.27;100.00;95470.91;5062574;28;20043;-80
2023/06/22 08:23:31;;;;;;;5.22;3.13;;;;;;;22.17;100.00;95457.16;5071391;28;20521;-82
2023/06/22 08:25:56;;;;;;;12.65;2.67;;;;;;;22.10;100.00;95443.03;5070319;28;20467;-82
2023/06/22 08:28:21;;;;;;;7.28;3.35;;;;;;;22.04;100.00;95429.47;5070032;28;20480;-80
2023/06/22 08:30:47;;;;;;;7.53;2.88;;;;;;;21.94;100.00;95418.41;5063597;28;20574;-80
2023/06/22 08:33:12;;;;;;;13.70;4.47;;;;;;;21.91;100.00;95416.19;5067396;28;20059;-79
2023/06/22 08:35:38;;;;;;;10.63;4.57;;;;;;;21.80;100.00;95416.91;5070528;28;20028;-78
2023/06/22 08:38:04;;;;;;;10.40;4.43;;;;;;;21.65;100.00;95426.09;5071936;28;20067;-80
2023/06/22 08:40:29;;;;;;;12.00;5.95;;;;;;;21.65;100.00;95436.81;5047974;28;20032;-79
2023/06/22 08:42:55;;;;;;;12.07;5.57;;;;;;;21.65;100.00;95441.34;5058715;28;20465;-79
2023/06/22 08:45:20;;;;;;;14.32;5.22;;;;;;;21.73;100.00;95470.53;5073366;28;20025;-79
2023/06/22 08:47:46;;;;;;;10.52;4.20;;;;;;;21.75;100.00;95452.41;5076836;28;20028;-80
2023/06/22 08:50:12;;;;;;;8.48;4.07;;;;;;;21.73;100.00;95425.00;5071122;28;20028;-79
2023/06/22 08:52:42;;;;;;;5.28;2.90;;;;;;;21.73;100.00;95433.84;5073828;28;20899;-81
2023/06/22 08:55:09;;;;;;;6.32;2.90;;;;;;;21.80;100.00;95438.34;5061592;28;20047;-76
2023/06/22 08:57:37;;;;;;;9.00;3.15;;;;;;;21.96;100.00;95443.13;5059885;28;20166;-76
2023/06/22 09:00:05;;;;;;;5.85;3.17;;;;;;;22.20;100.00;95435.28;5073482;28;20116;-77
2023/06/22 09:02:31;;;;;;;5.35;2.60;;;;;;;22.41;100.00;95433.22;5073328;28;20499;-76
2023/06/22 09:05:03;;;;;;;9.23;3.17;;;;;;;22.73;100.00;95427.72;5078591;28;20115;-74
2023/06/22 09:07:28;;;;;;;8.93;3.88;;;;;;;22.83;100.00;95414.59;5068105;28;20039;-74
2023/06/22 09:09:54;;;;;;;5.55;2.90;;;;;;;22.87;100.00;95431.88;5076528;28;20024;-74
2023/06/22 09:12:22;;;;;;;9.05;3.60;;;;;;;22.87;100.00;95431.06;5073930;28;20097;-74
2023/06/22 09:14:48;;;;;;;9.05;3.20;;;;;;;22.92;100.00;95411.59;5067826;28;20119;-74
2023/06/22 09:17:13;;;;;;;5.90;3.80;;;;;;;22.89;100.00;95423.59;5075711;28;20580;-75
2023/06/22 09:19:39;;;;;;;7.90;3.10;;;;;;;22.73;100.00;95444.63;5074604;28;20419;-76
2023/06/22 09:22:06;;;;;;;8.75;3.20;;;;;;;22.52;100.00;95440.56;5070665;28;20074;-74
2023/06/22 09:24:32;;;;;;;5.63;3.03;;;;;;;22.33;100.00;95451.25;5074794;28;20017;-74
2023/06/22 09:26:57;;;;;;;9.07;3.47;;;;;;;22.09;100.00;95419.94;5077640;28;20035;-74
2023/06/22 09:29:23;;;;;;;7.75;2.95;;;;;;;22.02;100.00;95399.41;5073308;28;20033;-73
2023/06/22 09:31:48;;;;;;;8.35;2.90;;;;;;;22.30;100.00;95394.56;5072272;28;20038;-74
2023/06/22 09:34:13;;;;;;;10.20;3.00;;;;;;;22.57;100.00;95388.94;5075502;28;20029;-74
2023/06/22 09:36:41;;;;;;;8.65;3.20;;;;;;;22.57;100.00;95395.09;5054292;28;20388;-73
2023/06/22 09:39:06;;;;;;;5.88;3.35;;;;;;;22.44;100.00;95388.00;5072516;28;20064;-73
2023/06/22 09:41:32;;;;;;;6.88;3.30;;;;;;;22.20;100.00;95394.25;5050877;28;20115;-73
2023/06/22 09:43:57;;;;;;;7.95;3.33;;;;;;;22.09;100.00;95385.09;5074004;28;20059;-76
2023/06/22 09:46:25;;;;;;;8.82;3.33;;;;;;;21.95;100.00;95393.25;5071577;28;20025;-76
2023/06/22 09:48:50;;;;;;;9.75;3.83;;;;;;;21.65;100.00;95402.00;5071126;28;20622;-76
2023/06/22 09:51:16;;;;;;;6.25;3.22;;;;;;;21.67;100.00;95385.72;5073457;28;20021;-75
2023/06/22 09:53:42;;;;;;;10.52;3.28;;;;;;;21.68;100.00;95358.69;5075490;28;20404;-74
2023/06/22 09:56:11;;;;;;;13.35;3.92;;;;;;;21.71;100.00;95336.81;5073755;28;20127;-73
2023/06/22 09:58:36;;;;;;;7.45;3.17;;;;;;;21.71;100.00;95334.13;5068452;28;20028;-74
2023/06/22 10:01:01;;;;;;;6.38;3.58;;;;;;;21.74;100.00;95328.34;5072979;28;20473;-74
2023/06/22 10:03:27;;;;;;;7.10;3.92;;;;;;;21.99;100.00;95334.69;5073180;28;20028;-76
2023/06/22 10:05:52;;;;;;;7.32;4.10;;;;;;;22.24;100.00;95336.47;5065927;28;20032;-74
2023/06/22 10:08:19;;;;;;;9.98;3.40;;;;;;;22.31;100.00;95340.72;5071655;28;20086;-73
2023/06/22 10:10:44;;;;;;;10.63;4.13;;;;;;;22.48;100.00;95339.31;5072644;28;20079;-74
2023/06/22 10:13:10;;;;;;;10.20;3.90;;;;;;;22.54;100.00;95357.16;5071509;28;20029;-71
2023/06/22 10:15:37;;;;;;;11.90;3.80;;;;;;;22.59;100.00;95371.53;5072449;28;20040;-71
2023/06/22 10:18:02;;;;;;;10.88;3.40;;;;;;;22.63;100.00;95392.56;5070493;28;20028;-72
2023/06/22 10:20:28;;;;;;;8.38;3.00;;;;;;;22.65;100.00;95399.34;5074039;28;20056;-74
2023/06/22 10:22:54;;;;;;;10.20;3.33;;;;;;;22.71;100.00;95398.44;5070454;28;20036;-74
2023/06/22 10:25:19;;;;;;;7.63;3.58;;;;;;;22.74;100.00;95383.75;5073780;28;20024;-74
2023/06/22 10:27:44;;;;;;;7.55;3.08;;;;;;;22.73;100.00;95376.75;5071731;28;20578;-74
2023/06/22 10:30:14;;;;;;;15.85;3.83;;;;;;;22.63;100.00;95389.88;5054438;28;20028;-74
2023/06/22 10:32:42;;;;;;;14.57;3.95;;;;;;;22.56;100.00;95392.66;5053750;28;20382;-72
2023/06/22 10:35:08;;;;;;;24.55;4.72;;;;;;;22.44;100.00;95389.88;5072906;28;20031;-74
2023/06/22 10:37:34;;;;;;;14.23;3.90;;;;;;;22.33;100.00;95402.97;5071449;28;20029;-74
2023/06/22 10:39:59;;;;;;;7.13;3.55;;;;;;;22.27;100.00;95435.22;5069913;28;20024;-74
2023/06/22 10:42:25;;;;;;;10.48;4.05;;;;;;;22.12;100.00;95430.22;5072171;28;20027;-74
2023/06/22 10:44:50;;;;;;;17.83;4.10;;;;;;;21.92;100.00;95388.34;5073193;28;20656;-74
2023/06/22 10:47:15;;;;;;;9.90;4.35;;;;;;;21.86;100.00;95324.94;5071213;28;20104;-76
2023/06/22 10:49:41;;;;;;;8.95;5.32;;;;;;;21.99;100.00;95273.84;5072231;28;20043;-76
2023/06/22 10:52:08;;;;;;;10.10;4.20;;;;;;;21.58;100.00;95224.44;5074757;28;20104;-76
2023/06/22 10:54:34;;;;;;;13.73;3.90;;;;;;;21.49;100.00;95207.00;5062544;28;20033;-76
2023/06/22 10:57:00;;;;;;;11.27;3.75;;;;;;;21.30;100.00;95205.16;5074370;28;20392;-76
2023/06/22 10:59:27;;;;;;;8.07;3.90;;;;;;;21.09;100.00;95193.00;5071326;28;20024;-77
2023/06/22 11:01:53;;;;;;;11.15;4.78;;;;;;;21.11;100.00;95211.50;5068466;28;20052;-78
2023/06/22 11:04:18;;;;;;;12.63;4.18;;;;;;;21.07;100.00;95216.47;5064125;28;20497;-77
2023/06/22 11:06:44;;;;;;;11.20;3.72;;;;;;;21.05;100.00;95245.31;5066249;28;20040;-77
2023/06/22 11:09:09;;;;;;;10.45;4.25;;;;;;;21.12;100.00;95250.63;5071152;28;20017;-76
2023/06/22 11:11:34;;;;;;;16.48;3.70;;;;;;;21.08;100.00;95215.44;5072348;28;20013;-76
2023/06/22 11:14:00;;;;;;;12.15;3.72;;;;;;;21.26;100.00;95206.63;5074753;28;20021;-76
2023/06/22 11:16:25;;;;;;;8.25;3.20;;;;;;;21.75;100.00;95286.31;5069394;28;20020;-76